Chris Hadfield Airport
CYZR : now visible

Airfield :











YOU CAN JOIN US ON...

 
LOGIN :

Register | Disclaimer

   EN    FR    IT 

 









Legend :    VFR   Marginal VFR   IFR   Intensive IFR   Very Intensive IFR
Visi :
Ceiling :
>= 8 km
>= 3000ft
5 to 8 km
1000 to 3000 ft
1500m to 5 km
500 to 1000 ft
800 to 1500m
200 to 500 ft
< 800m
< 200 ft
Symbols :   Thunderstorms  Fog  Heavy snow  Heavy precipitations  Wind > 20 kt






- Airport Elevation : 594 ft
- IATA code : YZR


CYZR - Chris Hadfield

CURRENT METAR :
  • 280045Z AUTO 36007KT 9SM SCT004 OVC022 09/09 A2977 RMK SLP085

EXPIRED METARs :
  • 280034Z AUTO 34007G16KT 9SM BKN004 OVC020 10/09 A2977 RMK SLP086
  • 280000Z AUTO 33007KT 9SM OVC004 10/09 A2976 RMK SLP082
  • 272352Z AUTO 33006KT 9SM OVC004 10/09 A2977 RMK SLP085
  • 272334Z AUTO 01005KT 320V030 9SM -RA BKN006 OVC016 10/09 A2975 RMK SLP081
  • 272326Z AUTO 35006KT 9SM -RA SCT006 OVC016 10/09 A2975 RMK SLP081
  • 272300Z AUTO 34008KT 9SM -RA OVC004 10/09 A2976 RMK LTNG DIST N PCPN 1.5MM PAST HR SLP080
  • 272218Z AUTO 01010KT 9SM RA BKN006 OVC011 10/09 A2974 RMK PCPN 0.8MM PAST HR SLP076

TAF AMD TAF CYZR
Valid from the 27 at 23:00 until the 28 at 02:00 UTC


272336Z 2723/2802 01005KT 4SM -RA BR BKN006 OVC015
TEMPO 2723/2802 P6SM -RA SCT006 OVC015
PROB30 2723/2802 1SM -RA BR OVC002 RMK FCST BASED ON AUTO OBS. NXT FCST BY 280800Z
CZYZ FIR / North America



MET'MAP, your aeronautical weather chart ! - Copyright ORBIFLY December 2007 - Disclaimer

ORBIFLY MET'MAP TEAM :

Programming & Development : Alexandra Zaïnal
Original concept : Baudouin d'Aumeries
Technical & hardware support : Manuel Goepfert
Assistance : Marc-Olivier Méhu

Contact : metmap@orbifly.com




SOURCES & CREDITS :

   NOAA       Earth
Advisory